Elizabeth Ann — WCZ5348 — position and weather

sailwx.info

Track history (hours):
 
Tides and Currents Weather Stations Pressure Air Temp Water Temp Dewpoint Dewpoint Depression Visibility Wind Speed Wind Dir Waves Ship Positions

Elizabeth Ann

Owner: ATLANTIC GULF TOWING LLC, Chesapeake, VA. More information available from US FCC via Universal Licensing System and Coast Guard Vessel Documentation Center.

Last reported at 2016-Jun-24 00:29 UTC. Time now 2016-Jul-27 11:41 UTC.
Position N 33°48' W 078°04'.
Warning: this ship's position is 33 days out of date.

Length 32 m; draft 4 m.

Type: Tug. MMSI: 366773150.

Date/timePositionNaut miles runAvg speedWind from/ knotsBaromVisibWave heightAir tempDewpointWater temp
2016-Jun-24 00:29N 33°48' W 078°04'3 2.4
2016-Jun-23 23:04N 33°44' W 078°03'3 3.7
2016-Jun-23 22:21N 33°42' W 078°04'2 3.1
2016-Jun-23 21:33N 33°39' W 078°04'6 5.5
2016-Jun-23 20:32N 33°35' W 078°00'73 4.1
2016-Jun-23 02:30N 34°04' W 076°39'4 4.1
2016-Jun-23 01:32N 34°07' W 076°36'4 4.0
2016-Jun-23 00:28N 34°10' W 076°32'22 3.5
2016-Jun-22 18:04N 34°29' W 076°19'2 3.9
2016-Jun-22 17:29N 34°31' W 076°18'46 3.3
2016-Jun-22 03:33N 35°00' W 075°34'110 3.2
2016-Jun-20 17:30N 36°49' W 075°53'7 7.3
2016-Jun-20 16:33N 36°55' W 075°57'7 7.2
2016-Jun-20 15:33N 36°58' W 076°06'12 5.2
2016-Jun-20 13:18N 36°57' W 076°20'4 6.0
2016-Jun-20 12:33N 36°53' W 076°20'0 0.5
2016-Jun-20 11:32N 36°52' W 076°20'3 3.5
2016-Jun-20 10:33N 36°50' W 076°18'4 3.7
2016-Jun-20 09:33N 36°46' W 076°18'1 1.4
2016-Jun-20 08:33N 36°45' W 076°18'0 0.0
2016-Jun-20 07:33N 36°45' W 076°18'0 0.0
2016-Jun-20 06:33N 36°45' W 076°18'0 0.0
2016-Jun-20 05:33N 36°45' W 076°18'0 0.0
2016-Jun-20 04:17N 36°45' W 076°18'0 0.0
2016-Jun-20 01:05N 36°45' W 076°18'0 0.0
2016-Jun-20 00:33N 36°45' W 076°18'0 0.0
2016-Jun-19 23:33N 36°45' W 076°18'0 0.0
2016-Jun-19 22:33N 36°45' W 076°18'0 0.0
2016-Jun-19 21:33N 36°45' W 076°18'0 0.0
2016-Jun-19 20:33N 36°45' W 076°18'0 0.0
2016-Jun-19 19:33N 36°45' W 076°18'0 0.0
2016-Jun-19 18:33N 36°45' W 076°18'0 0.0
2016-Jun-19 17:33N 36°45' W 076°18'0 0.0
2016-Jun-19 16:33N 36°45' W 076°18'2 2.3
2016-Jun-19 15:34N 36°47' W 076°18'6 5.8
2016-Jun-19 14:34N 36°52' W 076°20'5 4.6
2016-Jun-19 13:34N 36°48' W 076°17'4 3.8
2016-Jun-19 12:30N 36°45' W 076°18'0 0.1
2016-Jun-19 11:33N 36°45' W 076°18'0 0.0
2016-Jun-19 10:34N 36°45' W 076°18'0 0.0
2016-Jun-19 09:34N 36°45' W 076°18'0 0.0
2016-Jun-19 08:34N 36°45' W 076°18'0 0.0
2016-Jun-19 07:34N 36°45' W 076°18'0 0.0
2016-Jun-19 06:33N 36°45' W 076°18'0 0.0
2016-Jun-19 05:33N 36°45' W 076°18'0 0.0
2016-Jun-19 04:33N 36°45' W 076°18'0 0.0
2016-Jun-19 03:34N 36°45' W 076°18'0 0.0
2016-Jun-19 02:34N 36°45' W 076°18'0 0.0
2016-Jun-19 01:34N 36°45' W 076°18'0 0.0
2016-Jun-19 00:34N 36°45' W 076°18'0 0.0
2016-Jun-18 23:34N 36°45' W 076°18'0 0.0
2016-Jun-18 22:34N 36°45' W 076°18'0 0.0
2016-Jun-18 21:34N 36°45' W 076°18'0 0.0
2016-Jun-18 20:34N 36°45' W 076°18'0 0.0
2016-Jun-18 19:34N 36°45' W 076°18'0 0.0
2016-Jun-18 18:33N 36°45' W 076°18'7 6.6
2016-Jun-18 17:34N 36°51' W 076°18'12 5.9
2016-Jun-18 15:26N 36°58' W 076°05'8 8.9
2016-Jun-18 14:33N 36°54' W 075°57'11 9.3
2016-Jun-18 13:24N 36°44' W 075°52'8 9.0
2016-Jun-18 12:33N 36°36' W 075°49'17 8.7
2016-Jun-18 10:33N 36°19' W 075°45'102 7.1
2016-Jun-17 20:13N 34°41' W 076°19'96 8.0
2016-Jun-17 08:14N 33°55' W 078°00'82 2.8
2016-Jun-16 03:11N 34°19' W 076°26'7 6.4
2016-Jun-16 02:07N 34°23' W 076°19'4 6.2
2016-Jun-16 01:33N 34°25' W 076°15'7 6.6
2016-Jun-16 00:34N 34°29' W 076°09'141 4.2
2016-Jun-14 15:11N 36°49' W 075°50'4 6.9
2016-Jun-14 14:33N 36°52' W 075°53'7 7.4
2016-Jun-14 13:33N 36°57' W 076°01'16 5.3
2016-Jun-14 10:33N 36°54' W 076°20'1 1.4
2016-Jun-14 09:34N 36°52' W 076°20'0 0.0
2016-Jun-14 08:25N 36°52' W 076°20'0 0.0
2016-Jun-14 07:18N 36°52' W 076°20'0 0.0
2016-Jun-14 06:08N 36°52' W 076°20'0 0.0
2016-Jun-14 02:33N 36°52' W 076°20'0 0.0
2016-Jun-14 01:34N 36°52' W 076°20'0 0.0
2016-Jun-14 00:30N 36°52' W 076°20'  
Track history (hours):
 
Tides and Currents Weather Stations Pressure Air Temp Water Temp Dewpoint Dewpoint Depression Visibility Wind Speed Wind Dir Waves Ship Positions

Elizabeth Ann

Owner: ATLANTIC GULF TOWING LLC, Chesapeake, VA. More information available from US FCC via Universal Licensing System and Coast Guard Vessel Documentation Center.

Last reported at 2016-Jun-24 00:29 UTC. Time now 2016-Jul-27 11:41 UTC.
Position N 33°48' W 078°04'.
Warning: this ship's position is 33 days out of date.

Length 32 m; draft 4 m.

Type: Tug. MMSI: 366773150.

Date/timePositionNaut miles runAvg speedWind from/ knotsBaromVisibWave heightAir tempDewpointWater temp
2016-Jun-24 00:29N 33°48' W 078°04'3 2.4
2016-Jun-23 23:04N 33°44' W 078°03'3 3.7
2016-Jun-23 22:21N 33°42' W 078°04'2 3.1
2016-Jun-23 21:33N 33°39' W 078°04'6 5.5
2016-Jun-23 20:32N 33°35' W 078°00'73 4.1
2016-Jun-23 02:30N 34°04' W 076°39'4 4.1
2016-Jun-23 01:32N 34°07' W 076°36'4 4.0
2016-Jun-23 00:28N 34°10' W 076°32'22 3.5
2016-Jun-22 18:04N 34°29' W 076°19'2 3.9
2016-Jun-22 17:29N 34°31' W 076°18'46 3.3
2016-Jun-22 03:33N 35°00' W 075°34'110 3.2
2016-Jun-20 17:30N 36°49' W 075°53'7 7.3
2016-Jun-20 16:33N 36°55' W 075°57'7 7.2
2016-Jun-20 15:33N 36°58' W 076°06'12 5.2
2016-Jun-20 13:18N 36°57' W 076°20'4 6.0
2016-Jun-20 12:33N 36°53' W 076°20'0 0.5
2016-Jun-20 11:32N 36°52' W 076°20'3 3.5
2016-Jun-20 10:33N 36°50' W 076°18'4 3.7
2016-Jun-20 09:33N 36°46' W 076°18'1 1.4
2016-Jun-20 08:33N 36°45' W 076°18'0 0.0
2016-Jun-20 07:33N 36°45' W 076°18'0 0.0
2016-Jun-20 06:33N 36°45' W 076°18'0 0.0
2016-Jun-20 05:33N 36°45' W 076°18'0 0.0
2016-Jun-20 04:17N 36°45' W 076°18'0 0.0
2016-Jun-20 01:05N 36°45' W 076°18'0 0.0
2016-Jun-20 00:33N 36°45' W 076°18'0 0.0
2016-Jun-19 23:33N 36°45' W 076°18'0 0.0
2016-Jun-19 22:33N 36°45' W 076°18'0 0.0
2016-Jun-19 21:33N 36°45' W 076°18'0 0.0
2016-Jun-19 20:33N 36°45' W 076°18'0 0.0
2016-Jun-19 19:33N 36°45' W 076°18'0 0.0
2016-Jun-19 18:33N 36°45' W 076°18'0 0.0
2016-Jun-19 17:33N 36°45' W 076°18'0 0.0
2016-Jun-19 16:33N 36°45' W 076°18'2 2.3
2016-Jun-19 15:34N 36°47' W 076°18'6 5.8
2016-Jun-19 14:34N 36°52' W 076°20'5 4.6
2016-Jun-19 13:34N 36°48' W 076°17'4 3.8
2016-Jun-19 12:30N 36°45' W 076°18'0 0.1
2016-Jun-19 11:33N 36°45' W 076°18'0 0.0
2016-Jun-19 10:34N 36°45' W 076°18'0 0.0
2016-Jun-19 09:34N 36°45' W 076°18'0 0.0
2016-Jun-19 08:34N 36°45' W 076°18'0 0.0
2016-Jun-19 07:34N 36°45' W 076°18'0 0.0
2016-Jun-19 06:33N 36°45' W 076°18'0 0.0
2016-Jun-19 05:33N 36°45' W 076°18'0 0.0
2016-Jun-19 04:33N 36°45' W 076°18'0 0.0
2016-Jun-19 03:34N 36°45' W 076°18'0 0.0
2016-Jun-19 02:34N 36°45' W 076°18'0 0.0
2016-Jun-19 01:34N 36°45' W 076°18'0 0.0
2016-Jun-19 00:34N 36°45' W 076°18'0 0.0
2016-Jun-18 23:34N 36°45' W 076°18'0 0.0
2016-Jun-18 22:34N 36°45' W 076°18'0 0.0
2016-Jun-18 21:34N 36°45' W 076°18'0 0.0
2016-Jun-18 20:34N 36°45' W 076°18'0 0.0
2016-Jun-18 19:34N 36°45' W 076°18'0 0.0
2016-Jun-18 18:33N 36°45' W 076°18'7 6.6
2016-Jun-18 17:34N 36°51' W 076°18'12 5.9
2016-Jun-18 15:26N 36°58' W 076°05'8 8.9
2016-Jun-18 14:33N 36°54' W 075°57'11 9.3
2016-Jun-18 13:24N 36°44' W 075°52'8 9.0
2016-Jun-18 12:33N 36°36' W 075°49'17 8.7
2016-Jun-18 10:33N 36°19' W 075°45'102 7.1
2016-Jun-17 20:13N 34°41' W 076°19'96 8.0
2016-Jun-17 08:14N 33°55' W 078°00'82 2.8
2016-Jun-16 03:11N 34°19' W 076°26'7 6.4
2016-Jun-16 02:07N 34°23' W 076°19'4 6.2
2016-Jun-16 01:33N 34°25' W 076°15'7 6.6
2016-Jun-16 00:34N 34°29' W 076°09'141 4.2
2016-Jun-14 15:11N 36°49' W 075°50'4 6.9
2016-Jun-14 14:33N 36°52' W 075°53'7 7.4
2016-Jun-14 13:33N 36°57' W 076°01'16 5.3
2016-Jun-14 10:33N 36°54' W 076°20'1 1.4
2016-Jun-14 09:34N 36°52' W 076°20'0 0.0
2016-Jun-14 08:25N 36°52' W 076°20'0 0.0
2016-Jun-14 07:18N 36°52' W 076°20'0 0.0
2016-Jun-14 06:08N 36°52' W 076°20'0 0.0
2016-Jun-14 02:33N 36°52' W 076°20'0 0.0
2016-Jun-14 01:34N 36°52' W 076°20'0 0.0
2016-Jun-14 00:30N 36°52' W 076°20'  

Dump ship's entire track history